createdAt,value
2023-03-10T00:00:23.582Z,22.27
2023-03-10T00:02:51.430Z,22.50
2023-03-10T00:05:21.226Z,23.30
2023-03-10T00:07:50.191Z,23.90
2023-03-10T00:10:18.770Z,22.60
2023-03-10T00:12:46.576Z,22.25
2023-03-10T00:15:15.169Z,23.55
2023-03-10T00:17:42.836Z,22.98
2023-03-10T00:20:13.347Z,21.70
2023-03-10T00:25:12.518Z,22.38
2023-03-10T00:27:40.155Z,22.85
2023-03-10T00:30:09.309Z,23.35
2023-03-10T00:32:37.254Z,22.48
2023-03-10T00:35:05.916Z,23.02
2023-03-10T00:37:33.662Z,22.13
2023-03-10T00:40:03.960Z,23.75
2023-03-10T00:42:31.686Z,21.42
2023-03-10T00:44:59.379Z,22.20
2023-03-10T00:47:27.038Z,21.45
2023-03-10T00:49:54.830Z,22.35
2023-03-10T00:52:22.439Z,22.30
2023-03-10T00:54:51.392Z,22.45
2023-03-10T00:57:20.411Z,22.25
2023-03-10T00:59:51.690Z,21.42
2023-03-10T01:02:19.702Z,22.30
2023-03-10T01:04:47.595Z,22.45
2023-03-10T01:07:15.326Z,22.08
2023-03-10T01:09:42.967Z,22.00
2023-03-10T01:12:10.884Z,21.55
2023-03-10T01:14:40.679Z,21.55
2023-03-10T01:17:08.392Z,22.60
2023-03-10T01:19:36.061Z,22.65
2023-03-10T01:22:03.721Z,23.30
2023-03-10T01:24:31.451Z,22.30
2023-03-10T01:26:59.125Z,22.70
2023-03-10T01:29:26.806Z,22.75
2023-03-10T01:31:55.852Z,22.80
2023-03-10T01:34:23.542Z,21.63
2023-03-10T01:36:51.246Z,22.05
2023-03-10T01:39:18.901Z,22.70
2023-03-10T01:41:46.586Z,21.17
2023-03-10T01:44:16.814Z,22.10
2023-03-10T01:46:51.181Z,20.42
2023-03-10T01:49:25.772Z,21.60
2023-03-10T01:51:59.433Z,20.10
2023-03-10T01:54:31.729Z,19.73
2023-03-10T01:56:59.990Z,20.33
2023-03-10T01:59:28.814Z,20.45
2023-03-10T02:01:58.883Z,18.63
2023-03-10T02:04:36.077Z,19.20
2023-03-10T02:07:07.366Z,19.20
2023-03-10T02:09:38.547Z,18.58
2023-03-10T02:12:08.484Z,19.85
2023-03-10T02:14:36.691Z,18.73
2023-03-10T02:17:05.667Z,17.73
2023-03-10T02:19:48.468Z,19.02
2023-03-10T02:22:17.156Z,17.63
2023-03-10T02:24:50.810Z,17.55
2023-03-10T02:27:22.779Z,17.45
2023-03-10T02:29:59.713Z,18.25
2023-03-10T02:32:30.864Z,16.27
2023-03-10T02:34:58.646Z,16.58
2023-03-10T02:37:29.918Z,16.42
2023-03-10T02:39:57.986Z,16.95
2023-03-10T02:42:31.854Z,17.65
2023-03-10T02:44:59.863Z,16.35
2023-03-10T02:47:27.614Z,15.75
2023-03-10T02:49:55.277Z,16.35
2023-03-10T02:52:30.510Z,16.48
2023-03-10T02:54:58.183Z,15.63
2023-03-10T02:57:27.355Z,15.73
2023-03-10T02:59:54.983Z,16.17
2023-03-10T03:02:22.747Z,15.70
2023-03-10T03:04:50.405Z,15.80
2023-03-10T03:07:18.020Z,15.18
2023-03-10T03:09:45.912Z,14.98
2023-03-10T03:12:13.600Z,15.15
2023-03-10T03:14:42.580Z,15.15
2023-03-10T03:17:10.351Z,13.65
2023-03-10T03:19:38.064Z,14.30
2023-03-10T03:22:05.761Z,13.25
2023-03-10T03:24:33.526Z,13.57
2023-03-10T03:27:01.214Z,13.60
2023-03-10T03:29:28.951Z,13.38
2023-03-10T03:31:57.989Z,13.02
2023-03-10T03:34:25.661Z,12.25
2023-03-10T03:36:53.342Z,12.15
2023-03-10T03:39:21.020Z,12.60
2023-03-10T03:41:53.039Z,12.45
2023-03-10T03:44:20.877Z,12.25
2023-03-10T03:46:48.497Z,12.07
2023-03-10T03:49:17.587Z,11.43
2023-03-10T03:51:45.646Z,10.82
2023-03-10T03:54:13.306Z,10.45
2023-03-10T03:56:41.253Z,10.43
2023-03-10T03:59:09.012Z,10.23
2023-03-10T04:01:36.734Z,11.48
2023-03-10T04:04:04.446Z,10.30
2023-03-10T04:06:33.655Z,10.38
2023-03-10T04:09:01.395Z,10.60
2023-03-10T04:11:29.111Z,11.05
2023-03-10T04:13:56.861Z,14.27
2023-03-10T04:16:24.609Z,17.80
2023-03-10T04:18:52.386Z,12.10
2023-03-10T04:21:20.084Z,10.65
2023-03-10T04:23:49.134Z,10.82
2023-03-10T04:26:16.838Z,10.65
2023-03-10T04:28:44.539Z,10.50
2023-03-10T04:31:15.740Z,11.25
2023-03-10T04:33:43.573Z,10.95
2023-03-10T04:36:11.595Z,10.05
2023-03-10T04:38:40.020Z,9.88
2023-03-10T04:41:09.492Z,10.38
2023-03-10T04:43:38.381Z,10.40
2023-03-10T04:46:06.716Z,11.43
2023-03-10T04:48:35.071Z,10.20
2023-03-10T04:51:05.934Z,9.73
2023-03-10T04:53:34.466Z,10.02
2023-03-10T04:56:02.981Z,9.85
2023-03-10T04:58:32.479Z,9.80
2023-03-10T05:01:03.450Z,9.75
2023-03-10T05:03:31.293Z,9.98
2023-03-10T05:05:59.075Z,10.57
2023-03-10T05:08:26.729Z,10.05
2023-03-10T05:10:54.351Z,10.48
2023-03-10T05:13:22.059Z,10.60
2023-03-10T05:15:51.156Z,10.35
2023-03-10T05:18:19.494Z,10.63
2023-03-10T05:20:47.170Z,10.15
2023-03-10T05:23:14.838Z,10.52
2023-03-10T05:25:42.556Z,10.65
2023-03-10T05:28:10.204Z,10.60
2023-03-10T05:30:37.844Z,10.77
2023-03-10T05:33:06.899Z,10.70
2023-03-10T05:35:34.574Z,10.38
2023-03-10T05:38:03.366Z,10.30
2023-03-10T05:40:31.064Z,20.70
2023-03-10T05:42:58.841Z,10.95
2023-03-10T05:45:26.519Z,10.40
2023-03-10T05:47:54.133Z,9.57
2023-03-10T05:50:23.224Z,9.40
2023-03-10T05:52:51.314Z,9.50
2023-03-10T05:55:21.104Z,9.48
2023-03-10T05:57:49.105Z,9.35
2023-03-10T06:00:17.589Z,10.20
2023-03-10T06:02:45.244Z,9.18
2023-03-10T06:05:13.564Z,9.35
2023-03-10T06:07:43.073Z,9.75
2023-03-10T06:10:11.761Z,10.07
2023-03-10T06:12:39.718Z,10.43
2023-03-10T06:15:08.603Z,10.02
2023-03-10T06:17:36.280Z,11.05
2023-03-10T06:20:04.669Z,10.27
2023-03-10T06:22:32.341Z,10.57
2023-03-10T06:25:01.575Z,12.40
2023-03-10T06:27:30.785Z,12.52
2023-03-10T06:29:58.433Z,11.63
2023-03-10T06:32:26.199Z,12.15
2023-03-10T06:34:53.898Z,11.60
2023-03-10T06:37:21.722Z,11.77
2023-03-10T06:39:49.436Z,11.18
2023-03-10T06:42:18.552Z,12.02
2023-03-10T06:44:48.729Z,11.63
2023-03-10T06:47:16.784Z,11.50
2023-03-10T06:49:44.446Z,11.38
2023-03-10T06:52:12.143Z,10.98
2023-03-10T06:54:39.806Z,11.38
2023-03-10T06:57:07.518Z,11.73
2023-03-10T06:59:36.540Z,11.18
2023-03-10T07:02:04.286Z,10.70
2023-03-10T07:04:32.004Z,10.90
2023-03-10T07:06:59.749Z,11.57
2023-03-10T07:09:27.409Z,11.23
2023-03-10T07:11:55.102Z,11.48
2023-03-10T07:14:22.787Z,11.27
2023-03-10T07:16:51.835Z,10.23
2023-03-10T07:19:19.526Z,10.02
2023-03-10T07:21:47.239Z,14.77
2023-03-10T07:24:15.001Z,19.83
2023-03-10T07:26:42.896Z,12.60
2023-03-10T07:29:10.878Z,10.85
2023-03-10T07:31:38.627Z,9.98
2023-03-10T07:34:07.676Z,9.95
2023-03-10T07:36:35.399Z,9.98
2023-03-10T07:39:03.068Z,9.55
2023-03-10T07:41:30.697Z,10.52
2023-03-10T07:43:58.433Z,9.85
2023-03-10T07:46:26.195Z,9.95
2023-03-10T07:48:53.939Z,25.70
2023-03-10T07:51:23.128Z,13.77
2023-03-10T07:53:50.904Z,9.60
2023-03-10T07:56:18.518Z,9.88
2023-03-10T07:58:46.283Z,9.20
2023-03-10T08:01:17.458Z,9.75
2023-03-10T08:03:46.110Z,9.10
2023-03-10T08:06:18.293Z,9.60
2023-03-10T08:08:47.622Z,10.07
2023-03-10T08:11:15.408Z,10.07
2023-03-10T08:13:45.278Z,9.45
2023-03-10T08:16:13.166Z,10.23
2023-03-10T08:18:40.833Z,10.20
2023-03-10T08:21:09.906Z,10.13
2023-03-10T08:23:39.455Z,10.02
2023-03-10T08:26:13.371Z,10.67
2023-03-10T08:28:41.174Z,10.30
2023-03-10T08:31:10.442Z,9.98
2023-03-10T08:33:38.809Z,9.70
2023-03-10T08:36:09.179Z,10.02
2023-03-10T08:38:37.055Z,10.48
2023-03-10T08:41:14.855Z,9.85
2023-03-10T08:43:43.527Z,10.80
2023-03-10T08:46:12.500Z,10.48
2023-03-10T08:48:42.668Z,17.08
2023-03-10T08:51:14.380Z,23.92
2023-03-10T08:53:43.811Z,13.85
2023-03-10T08:56:12.905Z,11.50
2023-03-10T08:58:40.666Z,11.18
2023-03-10T09:01:08.406Z,11.45
2023-03-10T09:03:36.820Z,11.05
2023-03-10T09:06:04.975Z,11.65
2023-03-10T09:08:32.660Z,12.32
2023-03-10T09:11:00.273Z,11.55
2023-03-10T09:13:29.337Z,11.10
2023-03-10T09:15:57.067Z,12.23
2023-03-10T09:18:24.811Z,14.80
2023-03-10T09:20:52.901Z,14.88
2023-03-10T09:23:20.845Z,14.85
2023-03-10T09:25:48.533Z,13.75
2023-03-10T09:28:18.567Z,14.40
2023-03-10T09:30:48.220Z,15.27
2023-03-10T09:33:18.172Z,14.23
2023-03-10T09:35:52.853Z,13.57
2023-03-10T09:38:30.466Z,14.20
2023-03-10T09:41:09.798Z,15.55
2023-03-10T09:43:40.246Z,13.80
2023-03-10T09:48:51.591Z,15.18
2023-03-10T09:51:23.009Z,16.00
2023-03-10T09:53:57.863Z,15.70
2023-03-10T09:56:30.160Z,17.17
2023-03-10T09:59:00.924Z,15.32
2023-03-10T10:01:33.567Z,16.17
2023-03-10T10:04:06.472Z,24.42
2023-03-10T10:06:37.366Z,30.92
2023-03-10T10:09:09.712Z,21.42
2023-03-10T10:11:37.826Z,17.05
2023-03-10T10:14:38.410Z,17.00
2023-03-10T10:17:22.205Z,16.98
2023-03-10T10:19:51.207Z,18.30
2023-03-10T10:22:24.610Z,18.67
2023-03-10T10:25:17.999Z,18.05
2023-03-10T10:27:46.330Z,17.70
2023-03-10T10:30:28.845Z,18.98
2023-03-10T10:33:00.128Z,17.90
2023-03-10T10:35:31.129Z,18.80
2023-03-10T10:38:07.724Z,17.35
2023-03-10T10:40:37.285Z,16.50
2023-03-10T10:43:07.584Z,17.38
2023-03-10T10:45:37.248Z,19.40
2023-03-10T10:48:06.908Z,18.15
2023-03-10T10:50:36.080Z,19.87
2023-03-10T10:53:20.647Z,19.90
2023-03-10T10:55:59.716Z,20.02
2023-03-10T10:58:30.861Z,20.23
2023-03-10T11:01:01.002Z,19.20
2023-03-10T11:03:33.477Z,20.10
2023-03-10T11:06:02.935Z,21.55
2023-03-10T11:08:34.952Z,20.50
2023-03-10T11:11:08.879Z,21.23
2023-03-10T11:13:44.916Z,20.17
2023-03-10T11:16:22.770Z,27.55
2023-03-10T11:18:58.435Z,28.45
2023-03-10T11:21:29.498Z,20.60
2023-03-10T11:24:04.729Z,19.67
2023-03-10T11:26:45.622Z,20.75
2023-03-10T11:29:25.711Z,20.33
2023-03-10T11:32:00.932Z,21.30
2023-03-10T11:34:32.863Z,20.10
2023-03-10T11:37:14.288Z,23.75
2023-03-10T11:39:49.394Z,22.52
2023-03-10T11:42:27.353Z,22.20
2023-03-10T11:45:04.791Z,22.85
2023-03-10T11:47:49.150Z,22.80
2023-03-10T11:50:30.046Z,22.75
2023-03-10T11:53:03.404Z,21.85
2023-03-10T11:55:32.964Z,22.77
2023-03-10T11:58:05.112Z,22.80
2023-03-10T12:00:37.775Z,22.85
2023-03-10T12:03:16.066Z,24.45
2023-03-10T12:05:50.796Z,23.05
2023-03-10T12:08:20.011Z,23.65
2023-03-10T12:10:49.391Z,24.15
2023-03-10T12:13:24.520Z,24.23
2023-03-10T12:15:56.232Z,23.75
2023-03-10T12:18:26.690Z,23.67
2023-03-10T12:21:21.955Z,24.85
2023-03-10T12:23:51.389Z,23.50
2023-03-10T12:26:55.343Z,22.95
2023-03-10T12:29:40.446Z,22.17
2023-03-10T12:32:42.889Z,22.15
2023-03-10T12:35:37.302Z,19.00
2023-03-10T12:38:28.806Z,16.02
2023-03-10T12:40:56.822Z,14.25
2023-03-10T12:43:55.462Z,14.10
2023-03-10T12:46:30.635Z,13.63
2023-03-10T12:49:15.499Z,12.52
2023-03-10T12:51:47.738Z,12.57
2023-03-10T12:54:45.984Z,15.15
2023-03-10T12:57:20.157Z,15.68
2023-03-10T12:59:57.697Z,14.60
2023-03-10T13:02:33.861Z,15.55
2023-03-10T13:05:06.896Z,14.48
2023-03-10T13:07:36.402Z,14.07
2023-03-10T13:10:06.311Z,39.75
2023-03-10T13:12:43.649Z,13.40
2023-03-10T13:15:23.861Z,10.70
2023-03-10T13:17:55.130Z,9.45
2023-03-10T13:20:24.504Z,9.68
2023-03-10T13:22:56.313Z,9.20
2023-03-10T13:25:26.614Z,8.10
2023-03-10T13:27:57.469Z,8.75
2023-03-10T13:30:27.759Z,7.90
2023-03-10T13:32:58.262Z,6.10
2023-03-10T13:38:15.644Z,5.93
2023-03-10T13:40:47.452Z,10.77
2023-03-10T13:43:33.604Z,9.60
2023-03-10T13:46:03.088Z,8.70
2023-03-10T13:48:33.303Z,9.57
2023-03-10T13:51:09.633Z,8.40
2023-03-10T13:53:37.215Z,8.02
2023-03-10T13:56:21.273Z,8.23
2023-03-10T13:58:51.004Z,7.75
2023-03-10T14:01:21.583Z,9.17
2023-03-10T14:03:54.660Z,8.48
2023-03-10T14:06:22.861Z,9.15
2023-03-10T14:08:51.467Z,8.07
2023-03-10T14:11:36.239Z,7.90
2023-03-10T14:14:05.281Z,8.20
2023-03-10T14:16:51.365Z,8.25
2023-03-10T14:19:38.986Z,8.52
2023-03-10T14:22:23.492Z,8.05
2023-03-10T14:24:51.238Z,8.18
2023-03-10T14:27:20.809Z,8.00
2023-03-10T14:29:51.223Z,8.00
2023-03-10T14:32:19.279Z,7.80
2023-03-10T14:34:47.333Z,8.10
2023-03-10T14:37:15.156Z,7.45
2023-03-10T14:39:43.177Z,7.47
2023-03-10T14:42:21.282Z,8.13
2023-03-10T14:44:50.249Z,7.32
2023-03-10T14:47:18.911Z,7.97
2023-03-10T14:49:47.055Z,8.32
2023-03-10T14:52:16.789Z,8.48
2023-03-10T14:54:45.300Z,8.33
2023-03-10T14:57:15.575Z,8.10
2023-03-10T14:59:44.611Z,8.52
2023-03-10T15:02:21.162Z,8.07
2023-03-10T15:04:48.986Z,7.88
2023-03-10T15:07:17.602Z,7.50
2023-03-10T15:09:45.724Z,7.05
2023-03-10T15:12:15.052Z,9.07
2023-03-10T15:14:47.583Z,7.90
2023-03-10T15:17:15.245Z,7.68
2023-03-10T15:19:42.883Z,7.22
2023-03-10T15:22:10.536Z,7.57
2023-03-10T15:24:38.156Z,8.18
2023-03-10T15:27:05.889Z,7.45
2023-03-10T15:29:33.542Z,7.57
2023-03-10T15:32:02.818Z,8.20
2023-03-10T15:34:30.466Z,9.82
2023-03-10T15:36:58.185Z,10.80
2023-03-10T15:39:31.891Z,11.25
2023-03-10T15:42:00.473Z,11.13
2023-03-10T15:44:28.170Z,10.82
2023-03-10T15:46:55.967Z,10.38
2023-03-10T15:49:25.086Z,11.32
2023-03-10T15:51:52.750Z,10.85
2023-03-10T15:54:20.469Z,10.93
2023-03-10T15:56:48.114Z,11.15
2023-03-10T15:59:16.095Z,12.57
2023-03-10T16:01:43.794Z,13.73
2023-03-10T16:04:11.495Z,13.60
2023-03-10T16:06:40.498Z,15.63
2023-03-10T16:09:09.166Z,14.73
2023-03-10T16:11:36.941Z,15.75
2023-03-10T16:14:05.131Z,14.18
2023-03-10T16:16:32.832Z,14.98
2023-03-10T16:19:00.571Z,13.43
2023-03-10T16:21:28.309Z,13.75
2023-03-10T16:23:58.146Z,14.00
2023-03-10T16:26:25.988Z,14.32
2023-03-10T16:28:55.501Z,13.80
2023-03-10T16:31:26.172Z,13.30
2023-03-10T16:33:55.041Z,14.85
2023-03-10T16:36:24.933Z,15.20
2023-03-10T16:38:53.550Z,15.15
2023-03-10T16:41:23.942Z,15.48
2023-03-10T16:43:51.750Z,14.90
2023-03-10T16:46:25.320Z,16.80
2023-03-10T16:48:55.076Z,15.38
2023-03-10T16:51:28.750Z,16.40
2023-03-10T16:53:58.873Z,15.90
2023-03-10T16:56:29.665Z,15.73
2023-03-10T16:58:57.838Z,15.07
2023-03-10T17:01:25.959Z,16.45
2023-03-10T17:03:54.719Z,16.13
2023-03-10T17:06:25.761Z,17.40
2023-03-10T17:08:54.595Z,17.58
2023-03-10T17:11:25.172Z,16.63
2023-03-10T17:13:56.509Z,15.65
2023-03-10T17:16:28.252Z,17.38
2023-03-10T17:18:57.963Z,15.93
2023-03-10T17:21:28.391Z,16.88
2023-03-10T17:23:56.643Z,15.73
2023-03-10T17:26:24.698Z,15.80
2023-03-10T17:28:54.099Z,15.45
2023-03-10T17:31:26.945Z,16.08
2023-03-10T17:33:55.563Z,16.95
2023-03-10T17:36:23.642Z,16.75
2023-03-10T17:38:53.346Z,15.43
2023-03-10T17:41:21.466Z,16.90
2023-03-10T17:43:49.146Z,16.35
2023-03-10T17:46:20.339Z,17.05
2023-03-10T17:48:48.236Z,17.25
2023-03-10T17:51:17.410Z,17.48
2023-03-10T17:53:45.690Z,16.27
2023-03-10T17:56:14.529Z,19.75
2023-03-10T17:58:43.213Z,18.13
2023-03-10T18:01:12.451Z,17.45
2023-03-10T18:03:41.581Z,17.67
2023-03-10T18:06:14.069Z,18.05
2023-03-10T18:08:42.272Z,17.85
2023-03-10T18:11:10.315Z,17.90
2023-03-10T18:13:38.688Z,17.15
2023-03-10T18:16:07.852Z,19.08
2023-03-10T18:18:35.559Z,18.30
2023-03-10T18:21:04.700Z,18.38
2023-03-10T18:23:32.334Z,19.55
2023-03-10T18:26:00.114Z,18.05
2023-03-10T18:28:27.783Z,18.25
2023-03-10T18:30:55.472Z,18.00
2023-03-10T18:33:23.121Z,17.50
2023-03-10T18:35:50.812Z,16.52
2023-03-10T18:38:21.117Z,15.05
2023-03-10T18:40:48.738Z,15.35
2023-03-10T18:43:16.366Z,15.00
2023-03-10T18:45:44.752Z,15.25
2023-03-10T18:48:12.466Z,14.68
2023-03-10T18:50:40.132Z,15.63
2023-03-10T18:53:07.793Z,14.52
2023-03-10T18:55:36.875Z,14.80
2023-03-10T18:58:04.894Z,14.68
2023-03-10T19:00:32.834Z,13.70
2023-03-10T19:03:00.614Z,14.05
2023-03-10T19:05:28.969Z,12.90
2023-03-10T19:07:56.804Z,12.80
2023-03-10T19:10:24.584Z,12.55
2023-03-10T19:12:53.670Z,13.10
2023-03-10T19:15:21.478Z,12.43
2023-03-10T19:17:49.159Z,13.05
2023-03-10T19:20:18.292Z,11.93
2023-03-10T19:22:50.502Z,12.60
2023-03-10T19:25:18.870Z,11.85
2023-03-10T19:27:48.812Z,10.27
2023-03-10T19:30:19.935Z,10.20
2023-03-10T19:32:48.449Z,10.45
2023-03-10T19:35:18.383Z,10.00
2023-03-10T19:37:47.172Z,9.68
2023-03-10T19:40:17.077Z,9.88
2023-03-10T19:42:45.807Z,9.93
2023-03-10T19:45:15.493Z,9.93
2023-03-10T19:47:45.702Z,9.85
2023-03-10T19:50:15.454Z,9.90
2023-03-10T19:52:46.840Z,10.32
2023-03-10T19:55:19.431Z,10.90
2023-03-10T19:57:48.139Z,11.65
2023-03-10T20:00:20.551Z,10.88
2023-03-10T20:02:49.643Z,11.82
2023-03-10T20:05:17.763Z,10.75
2023-03-10T20:07:46.883Z,12.27
2023-03-10T20:10:16.256Z,12.32
2023-03-10T20:12:44.062Z,13.10
2023-03-10T20:15:12.346Z,13.60
2023-03-10T20:17:40.166Z,13.10
2023-03-10T20:20:11.061Z,12.63
2023-03-10T20:22:40.037Z,12.80
2023-03-10T20:25:09.354Z,12.63
2023-03-10T20:27:37.627Z,13.77
2023-03-10T20:30:07.641Z,13.10
2023-03-10T20:32:35.935Z,14.15
2023-03-10T20:35:04.502Z,13.30
2023-03-10T20:37:35.657Z,13.63
2023-03-10T20:40:05.681Z,14.70
2023-03-10T20:42:33.852Z,13.75
2023-03-10T20:45:02.421Z,14.85
2023-03-10T20:47:30.159Z,14.40
2023-03-10T20:49:58.132Z,14.98
2023-03-10T20:52:25.853Z,14.75
2023-03-10T20:54:55.638Z,14.65
2023-03-10T20:57:23.485Z,14.48
2023-03-10T20:59:51.164Z,15.65
2023-03-10T21:02:19.374Z,14.70
2023-03-10T21:04:47.725Z,14.80
2023-03-10T21:07:15.441Z,15.65
2023-03-10T21:09:44.884Z,15.88
2023-03-10T21:12:18.413Z,15.02
2023-03-10T21:14:46.280Z,15.05
2023-03-10T21:17:14.022Z,16.90
2023-03-10T21:19:41.735Z,16.38
2023-03-10T21:22:09.613Z,15.05
2023-03-10T21:24:37.879Z,17.67
2023-03-10T21:27:05.806Z,16.40
2023-03-10T21:29:36.681Z,17.02
2023-03-10T21:32:04.895Z,15.82
2023-03-10T21:34:33.220Z,16.83
2023-03-10T21:37:01.655Z,16.35
2023-03-10T21:39:29.339Z,16.02
2023-03-10T21:41:56.964Z,16.02
2023-03-10T21:44:24.611Z,16.02
2023-03-10T21:46:53.641Z,15.77
2023-03-10T21:49:21.934Z,16.00
2023-03-10T21:51:49.928Z,15.65
2023-03-10T21:54:17.652Z,14.00
2023-03-10T21:56:45.295Z,16.23
2023-03-10T21:59:12.875Z,14.73
2023-03-10T22:01:40.627Z,15.48
2023-03-10T22:04:10.886Z,15.30
2023-03-10T22:06:38.618Z,16.02
2023-03-10T22:09:06.667Z,14.55
2023-03-10T22:11:34.542Z,15.27
2023-03-10T22:14:02.229Z,14.95
2023-03-10T22:16:29.938Z,17.08
2023-03-10T22:18:57.581Z,16.20
2023-03-10T22:21:26.724Z,14.90
2023-03-10T22:23:54.442Z,15.77
2023-03-10T22:26:22.060Z,15.30
2023-03-10T22:28:49.691Z,14.50
2023-03-10T22:31:18.187Z,15.18
2023-03-10T22:33:45.871Z,16.25
2023-03-10T22:36:14.281Z,15.25
2023-03-10T22:38:43.307Z,15.57
2023-03-10T22:41:12.315Z,16.23
2023-03-10T22:43:40.024Z,15.15
2023-03-10T22:46:09.634Z,15.85
2023-03-10T22:48:37.360Z,15.03
2023-03-10T22:51:07.231Z,14.95
2023-03-10T22:53:37.449Z,14.70
2023-03-10T22:56:07.237Z,13.95
2023-03-10T22:58:34.870Z,13.57
2023-03-10T23:01:02.584Z,14.02
2023-03-10T23:03:30.417Z,13.75
2023-03-10T23:06:00.845Z,13.15
2023-03-10T23:10:56.358Z,13.77
2023-03-10T23:13:25.426Z,14.07
2023-03-10T23:15:53.084Z,14.73
2023-03-10T23:18:21.316Z,14.80
2023-03-10T23:20:49.815Z,14.70
2023-03-10T23:23:19.026Z,14.30
2023-03-10T23:25:48.658Z,14.43
2023-03-10T23:28:17.888Z,15.67
2023-03-10T23:30:48.403Z,15.13
2023-03-10T23:35:46.156Z,15.65
2023-03-10T23:38:13.951Z,13.95
2023-03-10T23:40:41.671Z,15.55
2023-03-10T23:43:09.325Z,14.27
2023-03-10T23:45:38.459Z,13.93
2023-03-10T23:48:11.969Z,13.43
2023-03-10T23:50:42.501Z,13.82
2023-03-10T23:55:40.624Z,12.68
2023-03-10T23:58:08.802Z,11.48
